Time;durP1;ratioP1;P1;durP2;ratioP2;P2;SDS_P1;SDS_P2;PMS_P1;PMS_P2;Temp;Humidity;BMP_temperature;BMP_pressure;BME280_temperature;BME280_humidity;BME280_pressure;Samples;Min_cycle;Max_cycle;Signal;HPM_P1;HPM_P2
2022/07/26 00:00:18;;;;;;;4.60;0.50;;;;;;;;;;5280864;28;20302;-74
2022/07/26 00:02:50;;;;;;;5.18;0.50;;;;;;;;;;5280438;28;20259;-74
2022/07/26 00:05:21;;;;;;;6.15;0.50;;;;;;;;;;5280669;28;20020;-75
2022/07/26 00:08:09;;;;;;;7.13;1.02;;;;;;;;;;5281332;28;20012;-74
2022/07/26 00:10:44;;;;;;;4.63;0.40;;;;;;;;;;5280020;28;20021;-74
2022/07/26 00:13:18;;;;;;;4.80;0.50;;;;;;;;;;5280878;28;20020;-74
2022/07/26 00:15:49;;;;;;;6.03;0.90;;;;;;;;;;5280935;28;20024;-74
2022/07/26 00:18:20;;;;;;;6.00;0.70;;;;;;;;;;5281284;28;20402;-75
2022/07/26 00:20:52;;;;;;;5.03;0.50;;;;;;;;;;5284757;28;20060;-74
2022/07/26 00:23:23;;;;;;;5.10;0.88;;;;;;;;;;5283594;28;20353;-74
2022/07/26 00:25:54;;;;;;;3.58;0.45;;;;;;;;;;5285005;28;20052;-75
2022/07/26 00:28:25;;;;;;;7.22;2.05;;;;;;;;;;5284295;28;20021;-74
2022/07/26 00:30:57;;;;;;;8.75;0.60;;;;;;;;;;5284058;28;20476;-74
2022/07/26 00:33:28;;;;;;;7.53;0.50;;;;;;;;;;5284135;28;20754;-74
2022/07/26 00:35:59;;;;;;;7.07;0.55;;;;;;;;;;5284845;28;20024;-74
2022/07/26 00:38:31;;;;;;;2.72;0.50;;;;;;;;;;5283590;28;20019;-74
2022/07/26 00:41:02;;;;;;;2.97;0.40;;;;;;;;;;5284546;28;20040;-74
2022/07/26 00:43:33;;;;;;;7.90;0.67;;;;;;;;;;5284308;28;20259;-75
2022/07/26 00:46:04;;;;;;;5.18;0.50;;;;;;;;;;5283452;28;20813;-74
2022/07/26 00:48:35;;;;;;;4.45;0.43;;;;;;;;;;5284264;28;20428;-75
2022/07/26 00:51:07;;;;;;;5.78;0.85;;;;;;;;;;5284227;28;20024;-75
2022/07/26 00:53:38;;;;;;;4.22;0.40;;;;;;;;;;5283549;28;20267;-75
2022/07/26 00:56:09;;;;;;;6.20;0.40;;;;;;;;;;5284336;28;20103;-74
2022/07/26 00:58:41;;;;;;;9.50;0.60;;;;;;;;;;5283395;28;20274;-73
2022/07/26 01:01:12;;;;;;;6.47;0.77;;;;;;;;;;5283861;28;20301;-74
2022/07/26 01:03:44;;;;;;;3.97;0.50;;;;;;;;;;5283831;28;20376;-75
2022/07/26 01:06:15;;;;;;;6.70;0.73;;;;;;;;;;5283370;28;20432;-74
2022/07/26 01:08:46;;;;;;;8.20;0.60;;;;;;;;;;5284078;28;20036;-74
2022/07/26 01:11:17;;;;;;;3.97;0.50;;;;;;;;;;5283864;28;20357;-74
2022/07/26 01:13:48;;;;;;;9.10;0.70;;;;;;;;;;5283117;28;20031;-74
2022/07/26 01:16:20;;;;;;;6.38;0.52;;;;;;;;;;5283437;28;20286;-74
2022/07/26 01:18:51;;;;;;;7.13;1.10;;;;;;;;;;5283946;28;20116;-74
2022/07/26 01:21:27;;;;;;;7.00;0.60;;;;;;;;;;5282221;28;20044;-74
2022/07/26 01:23:58;;;;;;;7.22;0.60;;;;;;;;;;5284003;28;20032;-74
2022/07/26 01:26:30;;;;;;;8.15;0.65;;;;;;;;;;5282468;28;20021;-74
2022/07/26 01:29:01;;;;;;;7.25;1.33;;;;;;;;;;5283325;28;20020;-74
2022/07/26 01:31:32;;;;;;;7.35;0.77;;;;;;;;;;5283394;28;20020;-75
2022/07/26 01:34:03;;;;;;;4.53;0.60;;;;;;;;;;5282767;28;20437;-74
2022/07/26 01:36:35;;;;;;;6.57;0.70;;;;;;;;;;5283381;28;20021;-74
2022/07/26 01:39:06;;;;;;;7.50;1.00;;;;;;;;;;5282804;28;20267;-74
2022/07/26 01:41:37;;;;;;;9.15;1.05;;;;;;;;;;5282594;28;20314;-74
2022/07/26 01:44:08;;;;;;;5.40;1.15;;;;;;;;;;5283307;28;20017;-74
2022/07/26 01:46:40;;;;;;;9.40;1.47;;;;;;;;;;5283176;28;20267;-74
2022/07/26 01:49:11;;;;;;;9.43;0.93;;;;;;;;;;5282362;28;20262;-74
2022/07/26 01:51:42;;;;;;;8.65;1.05;;;;;;;;;;5283046;28;20028;-74
2022/07/26 01:54:13;;;;;;;7.90;0.80;;;;;;;;;;5283106;28;20259;-74
2022/07/26 01:56:44;;;;;;;10.27;0.93;;;;;;;;;;5282324;28;20111;-74
2022/07/26 01:59:15;;;;;;;12.95;1.33;;;;;;;;;;5282794;28;20320;-75
2022/07/26 02:01:47;;;;;;;5.68;0.82;;;;;;;;;;5282040;28;20095;-74
2022/07/26 02:07:07;;;;;;;11.57;1.35;;;;;;;;;;5282765;28;20259;-75
2022/07/26 02:09:39;;;;;;;8.02;1.10;;;;;;;;;;5281868;28;20021;-75
2022/07/26 02:12:10;;;;;;;8.30;1.25;;;;;;;;;;5282562;28;20013;-76
2022/07/26 02:14:41;;;;;;;9.70;1.35;;;;;;;;;;5282497;28;20486;-75
2022/07/26 02:17:12;;;;;;;9.60;1.75;;;;;;;;;;5281862;28;20016;-76
2022/07/26 02:19:44;;;;;;;9.23;1.00;;;;;;;;;;5282315;28;20295;-74
2022/07/26 02:22:15;;;;;;;10.20;1.30;;;;;;;;;;5282524;28;20052;-75
2022/07/26 02:24:47;;;;;;;8.63;1.00;;;;;;;;;;5281317;28;20346;-74
2022/07/26 02:27:19;;;;;;;8.60;1.00;;;;;;;;;;5282196;28;20267;-74
2022/07/26 02:29:50;;;;;;;14.00;2.25;;;;;;;;;;5281920;28;20095;-74
2022/07/26 02:32:21;;;;;;;10.73;1.23;;;;;;;;;;5281939;28;20039;-74
2022/07/26 02:34:52;;;;;;;7.33;1.40;;;;;;;;;;5282419;28;20270;-74
2022/07/26 02:37:24;;;;;;;10.73;1.30;;;;;;;;;;5280908;28;20312;-75
2022/07/26 02:39:55;;;;;;;10.75;1.17;;;;;;;;;;5282169;28;20041;-75
2022/07/26 02:42:26;;;;;;;10.43;1.20;;;;;;;;;;5281314;28;20383;-74
2022/07/26 02:44:57;;;;;;;9.75;1.88;;;;;;;;;;5281642;28;20332;-75
2022/07/26 02:47:29;;;;;;;10.95;1.67;;;;;;;;;;5281708;28;20289;-75
2022/07/26 02:50:00;;;;;;;11.50;2.75;;;;;;;;;;5281869;28;20092;-75
2022/07/26 02:52:31;;;;;;;9.00;1.80;;;;;;;;;;5280969;28;20090;-75
2022/07/26 02:55:03;;;;;;;15.40;2.42;;;;;;;;;;5281851;28;20812;-74
2022/07/26 02:57:34;;;;;;;20.35;2.60;;;;;;;;;;5281458;28;20016;-74
2022/07/26 03:00:06;;;;;;;11.77;1.98;;;;;;;;;;5280540;28;20032;-75
2022/07/26 03:02:37;;;;;;;12.30;1.63;;;;;;;;;;5281633;28;20020;-74
2022/07/26 03:05:09;;;;;;;10.73;2.08;;;;;;;;;;5281227;28;20020;-75
2022/07/26 03:07:40;;;;;;;12.90;2.03;;;;;;;;;;5281718;28;20028;-75
2022/07/26 03:10:11;;;;;;;13.40;2.20;;;;;;;;;;5281717;28;20096;-74
2022/07/26 03:12:43;;;;;;;10.77;1.95;;;;;;;;;;5280785;28;20258;-75
2022/07/26 03:15:14;;;;;;;13.38;1.98;;;;;;;;;;5281783;28;20471;-75
2022/07/26 03:17:45;;;;;;;11.80;1.75;;;;;;;;;;5281541;28;20017;-75
2022/07/26 03:20:16;;;;;;;14.80;2.23;;;;;;;;;;5280446;28;20076;-75
2022/07/26 03:22:47;;;;;;;12.10;2.30;;;;;;;;;;5281460;28;20286;-75
2022/07/26 03:25:19;;;;;;;13.55;3.00;;;;;;;;;;5280913;28;20362;-75
2022/07/26 03:27:52;;;;;;;12.30;1.42;;;;;;;;;;5281120;28;20714;-75
2022/07/26 03:30:24;;;;;;;12.82;1.67;;;;;;;;;;5280863;28;20055;-75
2022/07/26 03:32:55;;;;;;;7.65;1.50;;;;;;;;;;5281693;28;20440;-76
2022/07/26 03:35:26;;;;;;;12.25;1.70;;;;;;;;;;5280288;28;20025;-75
2022/07/26 03:37:58;;;;;;;13.47;2.77;;;;;;;;;;5281486;28;20267;-75
2022/07/26 03:40:29;;;;;;;9.10;2.05;;;;;;;;;;5280289;28;20286;-74
2022/07/26 03:43:00;;;;;;;17.23;3.40;;;;;;;;;;5281277;28;20024;-75
2022/07/26 03:45:31;;;;;;;13.30;2.45;;;;;;;;;;5281182;28;20263;-75
2022/07/26 03:48:02;;;;;;;16.50;2.50;;;;;;;;;;5280414;28;20274;-75
2022/07/26 03:50:34;;;;;;;13.20;2.33;;;;;;;;;;5281032;28;20642;-75
2022/07/26 03:53:05;;;;;;;11.98;2.42;;;;;;;;;;5283729;28;20024;-75
2022/07/26 03:58:26;;;;;;;14.77;2.30;;;;;;;;;;5284861;28;20278;-75
2022/07/26 04:00:57;;;;;;;12.00;2.40;;;;;;;;;;5285281;28;20052;-74
2022/07/26 04:03:28;;;;;;;13.40;2.17;;;;;;;;;;5284046;28;20266;-76
2022/07/26 04:05:59;;;;;;;14.13;3.80;;;;;;;;;;5285194;28;20721;-75
2022/07/26 04:08:30;;;;;;;15.85;3.05;;;;;;;;;;5284127;28;20361;-74
2022/07/26 04:11:02;;;;;;;17.17;2.53;;;;;;;;;;5284957;28;20446;-74
2022/07/26 04:13:34;;;;;;;12.63;2.67;;;;;;;;;;5285181;28;20040;-75
2022/07/26 04:16:05;;;;;;;19.42;3.75;;;;;;;;;;5284277;28;20262;-75
2022/07/26 04:18:37;;;;;;;17.73;3.10;;;;;;;;;;5284906;28;20009;-75
2022/07/26 04:21:08;;;;;;;13.45;2.53;;;;;;;;;;5284539;28;20044;-75
2022/07/26 04:23:39;;;;;;;15.60;2.67;;;;;;;;;;5283891;28;20017;-75
2022/07/26 04:26:12;;;;;;;15.25;2.85;;;;;;;;;;5284880;28;20279;-75
2022/07/26 04:28:44;;;;;;;16.08;2.42;;;;;;;;;;5284759;28;20258;-75
2022/07/26 04:31:15;;;;;;;15.27;3.08;;;;;;;;;;5283828;28;20031;-75
2022/07/26 04:33:46;;;;;;;18.48;2.78;;;;;;;;;;5284725;28;20035;-75
2022/07/26 04:36:17;;;;;;;8.13;2.20;;;;;;;;;;5284403;28;20277;-75
2022/07/26 04:38:48;;;;;;;14.45;2.75;;;;;;;;;;5283845;28;20259;-75
2022/07/26 04:41:19;;;;;;;13.52;2.22;;;;;;;;;;5284348;28;20039;-75
2022/07/26 04:43:51;;;;;;;12.57;2.10;;;;;;;;;;5283879;28;20343;-75
2022/07/26 04:46:23;;;;;;;14.43;2.00;;;;;;;;;;5283989;28;20270;-75
2022/07/26 04:48:55;;;;;;;12.32;2.72;;;;;;;;;;5284768;28;20452;-75
2022/07/26 04:51:26;;;;;;;15.03;2.80;;;;;;;;;;5283286;28;20031;-75
2022/07/26 04:53:57;;;;;;;10.82;1.98;;;;;;;;;;5284534;28;20266;-75
2022/07/26 04:56:28;;;;;;;11.90;2.10;;;;;;;;;;5283820;28;20017;-75
2022/07/26 04:58:59;;;;;;;15.90;2.33;;;;;;;;;;5283173;28;20020;-75
2022/07/26 05:01:30;;;;;;;13.68;2.53;;;;;;;;;;5284095;28;20028;-75
2022/07/26 05:04:02;;;;;;;14.50;2.60;;;;;;;;;;5283411;28;20020;-75
2022/07/26 05:06:33;;;;;;;11.15;2.58;;;;;;;;;;5283375;28;20334;-74
2022/07/26 05:09:04;;;;;;;11.13;2.13;;;;;;;;;;5283944;28;20017;-75
2022/07/26 05:11:35;;;;;;;11.98;2.08;;;;;;;;;;5282965;28;20861;-74
2022/07/26 05:14:06;;;;;;;11.20;2.53;;;;;;;;;;5283733;28;20017;-75
2022/07/26 05:16:37;;;;;;;12.50;2.15;;;;;;;;;;5283888;28;20034;-74
2022/07/26 05:19:08;;;;;;;13.07;2.20;;;;;;;;;;5282883;28;20020;-74
2022/07/26 05:21:40;;;;;;;11.00;2.58;;;;;;;;;;5283787;28;20289;-74
2022/07/26 05:24:11;;;;;;;12.82;2.47;;;;;;;;;;5283480;28;20270;-74
2022/07/26 05:26:42;;;;;;;13.15;2.30;;;;;;;;;;5283078;28;20676;-75
2022/07/26 05:29:13;;;;;;;18.17;2.63;;;;;;;;;;5283695;28;20099;-74
2022/07/26 05:31:45;;;;;;;10.10;3.03;;;;;;;;;;5283376;28;20267;-75
2022/07/26 05:34:16;;;;;;;16.75;3.03;;;;;;;;;;5282468;28;20048;-74
2022/07/26 05:36:47;;;;;;;10.55;2.50;;;;;;;;;;5283242;28;20799;-75
2022/07/26 05:39:18;;;;;;;9.70;2.00;;;;;;;;;;5282906;28;20131;-75
2022/07/26 05:41:49;;;;;;;16.17;3.17;;;;;;;;;;5282849;28;20020;-75
2022/07/26 05:44:23;;;;;;;10.88;1.98;;;;;;;;;;5283003;28;20021;-75
2022/07/26 05:46:54;;;;;;;7.90;2.13;;;;;;;;;;5282380;28;20351;-75
2022/07/26 05:49:25;;;;;;;12.82;2.30;;;;;;;;;;5283009;28;20099;-74
2022/07/26 05:51:57;;;;;;;12.88;2.67;;;;;;;;;;5283434;28;20016;-75
2022/07/26 05:54:28;;;;;;;11.63;2.22;;;;;;;;;;5281740;28;20016;-74
2022/07/26 05:56:59;;;;;;;15.75;1.98;;;;;;;;;;5282857;28;20365;-74
2022/07/26 05:59:31;;;;;;;10.55;2.25;;;;;;;;;;5282629;28;20476;-76
2022/07/26 06:02:02;;;;;;;11.18;3.05;;;;;;;;;;5282148;28;20021;-75
2022/07/26 06:04:33;;;;;;;10.83;1.83;;;;;;;;;;5282589;28;20013;-75
2022/07/26 06:07:04;;;;;;;11.60;2.50;;;;;;;;;;5282454;28;20317;-75
2022/07/26 06:09:35;;;;;;;12.77;1.90;;;;;;;;;;5281803;28;20016;-75
2022/07/26 06:12:07;;;;;;;9.73;2.00;;;;;;;;;;5282351;28;20017;-75
2022/07/26 06:14:38;;;;;;;10.85;1.70;;;;;;;;;;5282446;28;20278;-75
2022/07/26 06:17:09;;;;;;;6.90;1.50;;;;;;;;;;5281426;28;20012;-75
2022/07/26 06:19:40;;;;;;;11.43;1.58;;;;;;;;;;5282160;28;20558;-75
2022/07/26 06:22:11;;;;;;;8.48;2.03;;;;;;;;;;5281374;28;20335;-75
2022/07/26 06:24:43;;;;;;;8.95;1.73;;;;;;;;;;5282420;28;20013;-75
2022/07/26 06:27:14;;;;;;;7.40;2.00;;;;;;;;;;5282309;28;20021;-75
2022/07/26 06:29:47;;;;;;;8.27;1.70;;;;;;;;;;5281345;28;20258;-75
2022/07/26 06:32:18;;;;;;;12.40;1.73;;;;;;;;;;5281940;28;20761;-75
2022/07/26 06:34:49;;;;;;;7.30;1.77;;;;;;;;;;5282148;28;20017;-75
2022/07/26 06:37:20;;;;;;;7.82;1.13;;;;;;;;;;5280964;28;20017;-74
2022/07/26 06:39:51;;;;;;;12.70;1.50;;;;;;;;;;5282453;28;20074;-75
2022/07/26 06:42:23;;;;;;;6.78;2.05;;;;;;;;;;5281400;28;20021;-76
2022/07/26 06:44:54;;;;;;;6.47;1.37;;;;;;;;;;5281276;28;20035;-75
2022/07/26 06:47:25;;;;;;;10.52;1.70;;;;;;;;;;5281270;28;20354;-75
2022/07/26 06:49:56;;;;;;;6.90;1.20;;;;;;;;;;5282099;28;20032;-75
2022/07/26 06:52:28;;;;;;;8.20;0.98;;;;;;;;;;5281025;28;20100;-75
2022/07/26 06:54:59;;;;;;;9.48;1.33;;;;;;;;;;5281749;28;20094;-75
2022/07/26 06:57:30;;;;;;;9.57;1.55;;;;;;;;;;5280897;28;20479;-75
2022/07/26 07:00:04;;;;;;;10.60;1.08;;;;;;;;;;5281564;28;20036;-75
2022/07/26 07:02:35;;;;;;;10.10;1.30;;;;;;;;;;5281701;28;20096;-75
2022/07/26 07:05:06;;;;;;;7.13;1.17;;;;;;;;;;5280913;28;20550;-75
2022/07/26 07:07:37;;;;;;;8.00;1.23;;;;;;;;;;5281707;28;20307;-76
2022/07/26 07:10:09;;;;;;;9.88;0.90;;;;;;;;;;5281641;28;20066;-76
2022/07/26 07:12:42;;;;;;;5.75;0.70;;;;;;;;;;5280721;28;20012;-74
2022/07/26 07:15:13;;;;;;;5.90;0.68;;;;;;;;;;5281458;28;20024;-75
2022/07/26 07:17:44;;;;;;;8.80;0.65;;;;;;;;;;5288717;28;20487;-74
2022/07/26 07:20:16;;;;;;;5.45;0.85;;;;;;;;;;5300955;28;21161;-76
2022/07/26 07:22:47;;;;;;;3.90;0.57;;;;;;;;;;5301972;28;20077;-77
2022/07/26 07:25:18;;;;;;;6.68;0.88;;;;;;;;;;5301303;28;20032;-80
2022/07/26 07:27:49;;;;;;;7.55;0.50;;;;;;;;;;5302400;28;20073;-76
2022/07/26 07:30:20;;;;;;;7.88;0.60;;;;;;;;;;5301827;28;20070;-78
2022/07/26 07:32:52;;;;;;;5.90;0.80;;;;;;;;;;5301458;28;20016;-76
2022/07/26 07:35:23;;;;;;;4.10;0.52;;;;;;;;;;5301790;28;20270;-76
2022/07/26 07:37:54;;;;;;;5.55;0.70;;;;;;;;;;5302635;28;20031;-77
2022/07/26 07:40:25;;;;;;;5.45;0.50;;;;;;;;;;5301134;28;20078;-76
2022/07/26 07:42:57;;;;;;;6.73;0.97;;;;;;;;;;5302486;28;20047;-77
2022/07/26 07:45:28;;;;;;;8.77;0.88;;;;;;;;;;5301759;28;20392;-77
2022/07/26 07:47:59;;;;;;;6.00;0.50;;;;;;;;;;5301454;28;20040;-77
2022/07/26 07:50:31;;;;;;;5.75;0.65;;;;;;;;;;5302348;28;20051;-77
2022/07/26 07:53:02;;;;;;;5.97;0.50;;;;;;;;;;5302260;28;20049;-77
2022/07/26 07:55:33;;;;;;;8.05;0.82;;;;;;;;;;5301412;28;20016;-77
2022/07/26 07:58:04;;;;;;;6.07;0.50;;;;;;;;;;5302106;28;20013;-77
2022/07/26 08:00:36;;;;;;;4.90;0.50;;;;;;;;;;5301178;28;20032;-76
2022/07/26 08:03:07;;;;;;;5.00;0.63;;;;;;;;;;5302100;28;20697;-76
2022/07/26 08:05:38;;;;;;;5.35;0.88;;;;;;;;;;5302066;28;20433;-73
2022/07/26 08:08:09;;;;;;;4.35;1.13;;;;;;;;;;5301187;28;20073;-76
2022/07/26 08:10:40;;;;;;;6.30;0.60;;;;;;;;;;5302022;28;20090;-76
2022/07/26 08:13:12;;;;;;;11.68;0.90;;;;;;;;;;5302100;28;20119;-76
2022/07/26 08:15:43;;;;;;;12.30;0.93;;;;;;;;;;5301424;28;20379;-76
2022/07/26 08:18:14;;;;;;;3.60;0.50;;;;;;;;;;5302059;28;20266;-76
2022/07/26 08:20:45;;;;;;;6.43;0.80;;;;;;;;;;5301643;28;20048;-77
2022/07/26 08:23:16;;;;;;;2.17;0.30;;;;;;;;;;5301132;28;20262;-77
2022/07/26 08:25:48;;;;;;;3.47;0.40;;;;;;;;;;5302215;28;20349;-75
2022/07/26 08:28:19;;;;;;;2.53;0.13;;;;;;;;;;5301479;28;20108;-75
2022/07/26 08:30:50;;;;;;;1.67;0.20;;;;;;;;;;5297223;28;20082;-75
2022/07/26 08:33:22;;;;;;;0.65;0.17;;;;;;;;;;5301323;28;20379;-75
2022/07/26 08:35:53;;;;;;;1.83;0.20;;;;;;;;;;5300917;28;20464;-77
2022/07/26 08:38:24;;;;;;;3.42;0.20;;;;;;;;;;5283568;28;20020;-77
2022/07/26 08:40:55;;;;;;;4.47;0.20;;;;;;;;;;5283905;28;20028;-75
2022/07/26 08:43:27;;;;;;;1.95;0.30;;;;;;;;;;5283385;28;20602;-78
2022/07/26 08:46:00;;;;;;;1.83;0.10;;;;;;;;;;5284138;28;20020;-77
2022/07/26 08:48:31;;;;;;;2.63;0.30;;;;;;;;;;5283165;28;20013;-77
2022/07/26 08:51:06;;;;;;;0.55;0.10;;;;;;;;;;5283145;28;20391;-76
2022/07/26 08:53:38;;;;;;;0.45;0.10;;;;;;;;;;5284073;28;20062;-76
2022/07/26 08:56:09;;;;;;;1.90;0.10;;;;;;;;;;5284246;28;20020;-77
2022/07/26 08:58:42;;;;;;;0.90;0.10;;;;;;;;;;5283251;28;20085;-77
2022/07/26 09:01:13;;;;;;;0.55;0.10;;;;;;;;;;5283726;28;20302;-77
2022/07/26 09:03:44;;;;;;;1.65;0.10;;;;;;;;;;5283342;28;20473;-79
2022/07/26 09:06:20;;;;;;;1.70;0.20;;;;;;;;;;5283562;28;20017;-76
2022/07/26 09:08:51;;;;;;;1.25;0.35;;;;;;;;;;5283206;28;20281;-72
2022/07/26 09:11:22;;;;;;;1.65;0.10;;;;;;;;;;5282822;28;20439;-79
2022/07/26 09:13:54;;;;;;;1.58;0.03;;;;;;;;;;5283987;28;20052;-74
2022/07/26 09:16:25;;;;;;;1.55;0.10;;;;;;;;;;5283167;28;20468;-74
2022/07/26 09:19:17;;;;;;;0.52;0.10;;;;;;;;;;5283102;28;20019;-74
2022/07/26 09:21:49;;;;;;;1.40;0.10;;;;;;;;;;5283874;28;20040;-74
2022/07/26 09:24:36;;;;;;;1.80;0.20;;;;;;;;;;5283316;28;20124;-74
2022/07/26 09:27:12;;;;;;;1.38;0.20;;;;;;;;;;5282816;28;20021;-75
2022/07/26 09:29:47;;;;;;;0.65;0.20;;;;;;;;;;5283455;28;20048;-75
2022/07/26 09:32:19;;;;;;;1.13;0.20;;;;;;;;;;5282769;28;20036;-76
2022/07/26 09:34:52;;;;;;;0.98;0.20;;;;;;;;;;5283920;28;20058;-76
2022/07/26 09:37:39;;;;;;;2.47;0.30;;;;;;;;;;5283175;28;20472;-76
2022/07/26 09:40:12;;;;;;;1.38;0.40;;;;;;;;;;5282607;28;20024;-77
2022/07/26 09:43:04;;;;;;;2.28;0.30;;;;;;;;;;5283116;28;20111;-77
2022/07/26 09:45:35;;;;;;;2.33;0.40;;;;;;;;;;5283395;28;20046;-76
2022/07/26 09:48:09;;;;;;;3.55;0.40;;;;;;;;;;5282504;28;20030;-76
2022/07/26 09:50:46;;;;;;;4.57;0.40;;;;;;;;;;5282620;28;20020;-76
2022/07/26 09:53:20;;;;;;;2.08;0.25;;;;;;;;;;5282446;28;20095;-76
2022/07/26 09:55:51;;;;;;;3.40;0.35;;;;;;;;;;5283366;28;20375;-75
2022/07/26 09:58:22;;;;;;;6.32;0.40;;;;;;;;;;5282495;28;20016;-75
2022/07/26 10:00:54;;;;;;;3.78;0.30;;;;;;;;;;5282249;28;20036;-74
2022/07/26 10:03:25;;;;;;;2.23;0.30;;;;;;;;;;5282607;28;20027;-75
2022/07/26 10:05:56;;;;;;;3.33;0.30;;;;;;;;;;5283229;28;20276;-75
2022/07/26 10:08:28;;;;;;;4.60;0.35;;;;;;;;;;5281665;28;20275;-75
2022/07/26 10:11:04;;;;;;;2.88;0.30;;;;;;;;;;5282723;28;20495;-75
2022/07/26 10:13:36;;;;;;;1.98;0.20;;;;;;;;;;5282731;28;20028;-75
2022/07/26 10:16:27;;;;;;;3.45;0.82;;;;;;;;;;5282228;28;20062;-75
2022/07/26 10:18:58;;;;;;;3.38;0.43;;;;;;;;;;5282811;28;20456;-72
2022/07/26 10:21:29;;;;;;;1.48;0.20;;;;;;;;;;5281408;28;20123;-75
2022/07/26 10:24:01;;;;;;;1.50;0.10;;;;;;;;;;5282541;28;20066;-75
2022/07/26 10:26:33;;;;;;;0.80;0.20;;;;;;;;;;5282612;28;20062;-74
2022/07/26 10:29:16;;;;;;;1.58;0.30;;;;;;;;;;5294835;28;20044;-75
2022/07/26 10:31:49;;;;;;;4.13;0.30;;;;;;;;;;5303501;28;20081;-74
2022/07/26 10:34:30;;;;;;;1.98;0.22;;;;;;;;;;5302728;28;20043;-75
2022/07/26 10:37:03;;;;;;;3.33;0.20;;;;;;;;;;5302588;28;20020;-74
2022/07/26 10:39:34;;;;;;;2.58;0.20;;;;;;;;;;5303159;28;20020;-77
2022/07/26 10:42:07;;;;;;;2.85;0.10;;;;;;;;;;5302944;28;20030;-74
2022/07/26 10:44:40;;;;;;;1.60;0.10;;;;;;;;;;5302840;28;20335;-76
2022/07/26 10:47:17;;;;;;;1.58;0.15;;;;;;;;;;5303125;28;20483;-77
2022/07/26 10:49:53;;;;;;;1.73;0.10;;;;;;;;;;5302110;28;20042;-76
2022/07/26 10:52:26;;;;;;;2.28;0.20;;;;;;;;;;5302855;28;20095;-77
2022/07/26 10:55:03;;;;;;;2.67;0.20;;;;;;;;;;5303075;28;20028;-77
2022/07/26 10:57:43;;;;;;;1.90;0.10;;;;;;;;;;5301960;28;20016;-77
2022/07/26 11:00:16;;;;;;;1.73;0.10;;;;;;;;;;5303002;28;20032;-83
2022/07/26 11:02:49;;;;;;;1.88;0.15;;;;;;;;;;5301833;28;20489;-81
2022/07/26 11:05:21;;;;;;;3.90;0.85;;;;;;;;;;5301571;28;20032;-78
2022/07/26 11:07:53;;;;;;;0.52;0.10;;;;;;;;;;5302878;28;20020;-78
2022/07/26 11:10:24;;;;;;;0.93;0.10;;;;;;;;;;5301767;28;20020;-80
2022/07/26 11:12:59;;;;;;;4.03;0.20;;;;;;;;;;5302766;28;20020;-80
2022/07/26 11:15:30;;;;;;;1.75;0.20;;;;;;;;;;5302555;28;20412;-80
2022/07/26 11:18:08;;;;;;;3.38;0.30;;;;;;;;;;5301808;28;20042;-81
2022/07/26 11:20:40;;;;;;;2.97;0.30;;;;;;;;;;5302314;28;20052;-74
2022/07/26 11:23:22;;;;;;;3.28;0.40;;;;;;;;;;5302457;28;20050;-74
2022/07/26 11:26:10;;;;;;;3.13;0.30;;;;;;;;;;5302586;28;20054;-74
2022/07/26 11:28:52;;;;;;;1.70;0.30;;;;;;;;;;5302557;28;20031;-73
2022/07/26 11:31:25;;;;;;;2.08;0.40;;;;;;;;;;5301559;28;20050;-73
2022/07/26 11:33:56;;;;;;;3.47;0.60;;;;;;;;;;5302817;28;20013;-72
2022/07/26 11:36:38;;;;;;;2.03;0.50;;;;;;;;;;5302116;28;20016;-73
2022/07/26 11:39:13;;;;;;;1.27;0.20;;;;;;;;;;5301601;28;20760;-73
2022/07/26 11:41:45;;;;;;;1.13;0.30;;;;;;;;;;5301960;28;20048;-74
2022/07/26 11:44:17;;;;;;;2.00;0.30;;;;;;;;;;5302126;28;20391;-72
2022/07/26 11:46:49;;;;;;;2.17;0.20;;;;;;;;;;5301536;28;20475;-73
2022/07/26 11:49:27;;;;;;;2.78;0.30;;;;;;;;;;5301638;28;20024;-74
2022/07/26 11:51:59;;;;;;;1.20;0.10;;;;;;;;;;5302669;28;20099;-74
2022/07/26 11:54:51;;;;;;;0.80;0.20;;;;;;;;;;5301581;28;20372;-73
2022/07/26 11:57:27;;;;;;;1.55;0.20;;;;;;;;;;5301357;28;20028;-74
2022/07/26 11:59:59;;;;;;;1.85;0.17;;;;;;;;;;5301372;28;20375;-73
2022/07/26 12:02:30;;;;;;;0.43;0.10;;;;;;;;;;5302178;28;20024;-73
2022/07/26 12:05:12;;;;;;;2.35;0.20;;;;;;;;;;5302221;28;20008;-73
2022/07/26 12:07:53;;;;;;;2.38;0.20;;;;;;;;;;5301195;28;20030;-72
2022/07/26 12:10:25;;;;;;;3.50;0.20;;;;;;;;;;5301742;28;20031;-73
2022/07/26 12:13:15;;;;;;;3.38;0.30;;;;;;;;;;5302830;28;20121;-75
2022/07/26 12:15:47;;;;;;;2.20;0.20;;;;;;;;;;5305403;28;20077;-74
2022/07/26 12:18:22;;;;;;;2.45;0.40;;;;;;;;;;5305523;28;20016;-75
2022/07/26 12:20:57;;;;;;;4.57;0.40;;;;;;;;;;5305228;28;20051;-74
2022/07/26 12:23:39;;;;;;;3.40;0.40;;;;;;;;;;5305722;28;20021;-75
2022/07/26 12:26:30;;;;;;;3.13;0.73;;;;;;;;;;5304413;28;20020;-74
2022/07/26 12:32:06;;;;;;;3.42;0.38;;;;;;;;;;5304705;28;20048;-73
2022/07/26 12:34:37;;;;;;;3.28;0.50;;;;;;;;;;5303937;28;20073;-74
2022/07/26 12:37:10;;;;;;;4.53;0.52;;;;;;;;;;5303535;28;20479;-74
2022/07/26 12:39:42;;;;;;;1.88;0.40;;;;;;;;;;5304193;28;20077;-74
2022/07/26 12:42:23;;;;;;;5.22;0.43;;;;;;;;;;5304537;28;20020;-74
2022/07/26 12:44:55;;;;;;;13.00;1.02;;;;;;;;;;5305787;28;20111;-73
2022/07/26 12:47:26;;;;;;;2.63;0.40;;;;;;;;;;5304698;28;20103;-74
2022/07/26 12:49:57;;;;;;;5.45;0.43;;;;;;;;;;5304846;28;20028;-77
2022/07/26 12:52:29;;;;;;;22.52;0.80;;;;;;;;;;5305139;28;20099;-76
2022/07/26 12:55:01;;;;;;;6.38;0.55;;;;;;;;;;5305419;28;20027;-75
2022/07/26 12:57:32;;;;;;;6.28;0.30;;;;;;;;;;5304595;28;20020;-75
2022/07/26 13:00:04;;;;;;;3.55;0.45;;;;;;;;;;5305183;28;20078;-75
2022/07/26 13:02:36;;;;;;;4.63;0.30;;;;;;;;;;5294049;28;20383;-73
2022/07/26 13:05:08;;;;;;;3.00;0.30;;;;;;;;;;5283334;28;20016;-73
2022/07/26 13:07:40;;;;;;;4.53;0.43;;;;;;;;;;5286136;28;20100;-73
2022/07/26 13:10:11;;;;;;;3.15;0.40;;;;;;;;;;5303039;28;20051;-73
2022/07/26 13:12:42;;;;;;;3.88;0.40;;;;;;;;;;5303907;28;20020;-73
2022/07/26 13:15:13;;;;;;;2.67;0.40;;;;;;;;;;5303432;28;20024;-73
2022/07/26 13:17:44;;;;;;;3.40;0.40;;;;;;;;;;5303086;28;20266;-73
2022/07/26 13:20:16;;;;;;;4.77;0.70;;;;;;;;;;5303663;28;20355;-72
2022/07/26 13:22:47;;;;;;;3.47;0.50;;;;;;;;;;5303571;28;20270;-72
2022/07/26 13:25:18;;;;;;;3.92;0.88;;;;;;;;;;5301147;28;20277;-72
2022/07/26 13:27:49;;;;;;;4.37;0.60;;;;;;;;;;5304031;28;20041;-71
2022/07/26 13:30:21;;;;;;;5.45;0.63;;;;;;;;;;5303417;28;20285;-72
2022/07/26 13:32:52;;;;;;;5.15;1.08;;;;;;;;;;5302824;28;20031;-72
2022/07/26 13:35:23;;;;;;;6.05;0.50;;;;;;;;;;5302756;28;20103;-72
2022/07/26 13:37:54;;;;;;;4.43;0.50;;;;;;;;;;5303370;28;20020;-72
2022/07/26 13:40:26;;;;;;;3.20;0.57;;;;;;;;;;5301783;28;20380;-72
2022/07/26 13:42:57;;;;;;;3.60;0.60;;;;;;;;;;5303746;28;20432;-72
2022/07/26 13:45:28;;;;;;;4.15;0.55;;;;;;;;;;5301400;28;20038;-72
2022/07/26 13:47:59;;;;;;;5.07;0.50;;;;;;;;;;5302770;28;20498;-72
2022/07/26 13:50:31;;;;;;;2.92;0.60;;;;;;;;;;5302966;28;20383;-72
2022/07/26 13:53:02;;;;;;;4.03;0.60;;;;;;;;;;5302245;28;20436;-73
2022/07/26 13:55:33;;;;;;;3.17;0.50;;;;;;;;;;5302157;28;20274;-72
2022/07/26 13:58:04;;;;;;;4.38;0.57;;;;;;;;;;5302800;28;20414;-72
2022/07/26 14:00:35;;;;;;;4.90;0.60;;;;;;;;;;5301621;28;20395;-73
2022/07/26 14:03:06;;;;;;;6.10;0.73;;;;;;;;;;5302271;28;20473;-72
2022/07/26 14:05:38;;;;;;;4.20;0.70;;;;;;;;;;5302096;28;20471;-73
2022/07/26 14:08:09;;;;;;;4.13;1.10;;;;;;;;;;5302168;28;20020;-72
2022/07/26 14:10:40;;;;;;;8.63;1.00;;;;;;;;;;5302639;28;20274;-73
2022/07/26 14:13:11;;;;;;;6.65;0.90;;;;;;;;;;5301452;28;20376;-73
2022/07/26 14:15:42;;;;;;;6.90;0.80;;;;;;;;;;5302727;28;20019;-73
2022/07/26 14:18:14;;;;;;;8.40;0.68;;;;;;;;;;5302812;28;20277;-73
2022/07/26 14:20:45;;;;;;;3.15;0.70;;;;;;;;;;5301629;28;20104;-73
2022/07/26 14:23:17;;;;;;;4.85;0.77;;;;;;;;;;5302226;28;20113;-73
2022/07/26 14:25:48;;;;;;;4.00;1.05;;;;;;;;;;5302059;28;20027;-73
2022/07/26 14:28:19;;;;;;;5.87;0.90;;;;;;;;;;5301422;28;20048;-73
2022/07/26 14:30:50;;;;;;;3.73;0.70;;;;;;;;;;5302876;28;20629;-73
2022/07/26 14:33:21;;;;;;;4.60;0.93;;;;;;;;;;5301868;28;20368;-74
2022/07/26 14:35:52;;;;;;;4.63;0.80;;;;;;;;;;5301766;28;20285;-74
2022/07/26 14:38:24;;;;;;;3.92;0.80;;;;;;;;;;5301135;28;20266;-73
2022/07/26 14:40:56;;;;;;;9.35;0.80;;;;;;;;;;5302325;28;20041;-74
2022/07/26 14:43:27;;;;;;;6.82;0.80;;;;;;;;;;5300975;28;20083;-73
2022/07/26 14:45:58;;;;;;;6.67;0.70;;;;;;;;;;5302876;28;20467;-73
2022/07/26 14:48:29;;;;;;;3.40;0.40;;;;;;;;;;5301017;28;20270;-74
2022/07/26 14:51:01;;;;;;;4.43;0.83;;;;;;;;;;5306105;28;20023;-74
2022/07/26 14:53:58;;;;;;;5.22;0.55;;;;;;;;;;5306534;28;20265;-73
2022/07/26 14:56:29;;;;;;;4.70;0.60;;;;;;;;;;5287534;28;20036;-72
2022/07/26 14:59:00;;;;;;;6.47;0.57;;;;;;;;;;5283792;28;20081;-72
2022/07/26 15:01:32;;;;;;;6.18;0.40;;;;;;;;;;5282282;28;20055;-72
2022/07/26 15:04:03;;;;;;;5.80;0.30;;;;;;;;;;5279796;28;20020;-72
2022/07/26 15:06:34;;;;;;;2.60;0.40;;;;;;;;;;5280613;28;20350;-72
2022/07/26 15:09:05;;;;;;;4.83;0.30;;;;;;;;;;5280146;28;20102;-73
2022/07/26 15:11:36;;;;;;;7.73;0.40;;;;;;;;;;5279953;28;20278;-72
2022/07/26 15:14:08;;;;;;;3.25;0.25;;;;;;;;;;5280587;28;20262;-73
2022/07/26 15:16:39;;;;;;;3.87;0.40;;;;;;;;;;5279809;28;20027;-72
2022/07/26 15:19:10;;;;;;;5.68;0.50;;;;;;;;;;5279925;28;20262;-73